This is the latest recevied weather packets stored in our database for station/object EA1GCN-10. If no packets are shown the sender has not sent any weather packets the latest 10 day(s).
| Time | Temp. | Humidity | Pressure | Rain* | Wind** | Luminosity | Snow |
|---|---|---|---|---|---|---|---|
| 1777383668 | 25° C | 46% | 1013 hPa | - | - | - | - |
| 1777381868 | 24.44° C | 48% | 1013 hPa | - | - | - | - |
| 1777380068 | 24.44° C | 48% | 1014 hPa | - | - | - | - |
| 1777378267 | 23.33° C | 51% | 1014 hPa | - | - | - | - |
| 1777376467 | 21.11° C | 59% | 1014 hPa | - | - | - | - |
| 1777374667 | 20.56° C | 59% | 1015 hPa | - | - | - | - |
| 1777372867 | 20.56° C | 59% | 1015 hPa | - | - | - | - |
| 1777371067 | 20° C | 61% | 1015 hPa | - | - | - | - |
| 1777369267 | 20.56° C | 61% | 1015 hPa | - | - | - | - |
| 1777367467 | 20° C | 64% | 1015 hPa | - | - | - | - |
| 1777365667 | 20° C | 63% | 1015 hPa | - | - | - | - |
| 1777363867 | 19.44° C | 65% | 1015 hPa | - | - | - | - |
| 1777362067 | 19.44° C | 65% | 1015 hPa | - | - | - | - |
| 1777360266 | 19.44° C | 64% | 1015 hPa | - | - | - | - |
| 1777358466 | 19.44° C | 64% | 1015 hPa | - | - | - | - |
| 1777356666 | 19.44° C | 63% | 1015 hPa | - | - | - | - |
| 1777354866 | 19.44° C | 64% | 1015 hPa | - | - | - | - |
| 1777353066 | 19.44° C | 63% | 1015 hPa | - | - | - | - |
| 1777351266 | 19.44° C | 63% | 1015 hPa | - | - | - | - |
| 1777349466 | 19.44° C | 63% | 1015 hPa | - | - | - | - |
| 1777347666 | 19.44° C | 64% | 1015 hPa | - | - | - | - |
| 1777345865 | 19.44° C | 64% | 1015 hPa | - | - | - | - |
| 1777344065 | 19.44° C | 63% | 1016 hPa | - | - | - | - |
| 1777342265 | 19.44° C | 63% | 1016 hPa | - | - | - | - |
| 1777340465 | 19.44° C | 63% | 1016 hPa | - | - | - | - |
* Rain since midnight (hover to see other rain measurements)
** Current wind speed in m/s (hover to see current wind gust speed)